Time;durP1;ratioP1;P1;durP2;ratioP2;P2;SDS_P1;SDS_P2;PMS_P1;PMS_P2;Temp;Humidity;BMP_temperature;BMP_pressure;BME280_temperature;BME280_humidity;BME280_pressure;Samples;Min_cycle;Max_cycle;Signal;HPM_P1;HPM_P2
2022/06/04 00:33:34;;;;;;;5.43;3.58;;;;;;;;;;6182556;23;20167;-89
2022/06/04 00:36:43;;;;;;;7.82;3.85;;;;;;;;;;6184867;23;20184;-92
2022/06/04 00:39:50;;;;;;;6.68;3.63;;;;;;;;;;6183477;23;20172;-92
2022/06/04 00:42:57;;;;;;;6.72;4.07;;;;;;;;;;6186340;23;20199;-92
2022/06/04 00:46:33;;;;;;;6.78;2.97;;;;;;;;;;6185438;23;20188;-92
2022/06/04 00:49:39;;;;;;;7.50;3.67;;;;;;;;;;6185974;23;20175;-92
2022/06/04 00:52:44;;;;;;;5.47;3.67;;;;;;;;;;6184223;23;20248;-92
2022/06/04 00:56:06;;;;;;;6.78;4.18;;;;;;;;;;6185113;23;20204;-91
2022/06/04 00:59:26;;;;;;;6.95;4.05;;;;;;;;;;6184314;23;20607;-91
2022/06/04 01:02:35;;;;;;;6.70;3.30;;;;;;;;;;6185149;23;20167;-92
2022/06/04 01:05:49;;;;;;;5.65;4.20;;;;;;;;;;6185573;23;20167;-93
2022/06/04 01:08:59;;;;;;;7.88;4.32;;;;;;;;;;6184820;23;20175;-91
2022/06/04 01:12:10;;;;;;;7.05;3.50;;;;;;;;;;6187978;23;20168;-91
2022/06/04 01:15:23;;;;;;;6.97;4.05;;;;;;;;;;6185262;23;20164;-91
2022/06/04 01:18:35;;;;;;;5.85;3.88;;;;;;;;;;6184854;23;20171;-91
2022/06/04 01:21:51;;;;;;;7.80;4.03;;;;;;;;;;6183681;23;20172;-91
2022/06/04 01:25:02;;;;;;;6.47;3.70;;;;;;;;;;6186288;23;20459;-91
2022/06/04 01:28:10;;;;;;;8.20;4.38;;;;;;;;;;6184501;23;20275;-89
2022/06/04 01:31:18;;;;;;;7.70;4.13;;;;;;;;;;6199112;23;20190;-93
2022/06/04 01:34:49;;;;;;;6.15;3.75;;;;;;;;;;6231916;23;20216;-91
2022/06/04 01:37:57;;;;;;;6.03;3.92;;;;;;;;;;6234535;23;20167;-91
2022/06/04 01:41:04;;;;;;;11.55;4.88;;;;;;;;;;6232379;23;20166;-93
2022/06/04 01:44:13;;;;;;;7.18;3.97;;;;;;;;;;6232391;23;20195;-92
2022/06/04 01:47:19;;;;;;;9.52;3.95;;;;;;;;;;6232959;23;20171;-91
2022/06/04 01:50:27;;;;;;;7.80;3.90;;;;;;;;;;6231599;23;20171;-90
2022/06/04 01:53:34;;;;;;;8.85;4.10;;;;;;;;;;6233586;23;20183;-93
2022/06/04 01:56:42;;;;;;;7.90;4.03;;;;;;;;;;6233308;23;20171;-91
2022/06/04 01:59:51;;;;;;;6.82;4.07;;;;;;;;;;6233340;23;20155;-92
2022/06/04 02:02:59;;;;;;;10.07;4.60;;;;;;;;;;6231593;23;20166;-92
2022/06/04 02:06:07;;;;;;;7.30;3.90;;;;;;;;;;6231138;23;20151;-91
2022/06/04 02:09:15;;;;;;;8.73;4.22;;;;;;;;;;6233115;23;20227;-91
2022/06/04 02:12:21;;;;;;;9.07;4.20;;;;;;;;;;6232602;23;20159;-92
2022/06/04 02:15:31;;;;;;;6.20;4.43;;;;;;;;;;6232886;23;20155;-93
2022/06/04 02:18:36;;;;;;;7.00;3.90;;;;;;;;;;6232008;23;20187;-92
2022/06/04 02:21:42;;;;;;;10.57;4.78;;;;;;;;;;6233215;23;20175;-93
2022/06/04 02:24:48;;;;;;;8.65;4.47;;;;;;;;;;6233807;23;20167;-93
2022/06/04 02:27:54;;;;;;;8.75;4.85;;;;;;;;;;6233194;23;20255;-91
2022/06/04 02:31:17;;;;;;;7.45;4.50;;;;;;;;;;6234001;23;20190;-92
2022/06/04 02:34:26;;;;;;;11.15;4.55;;;;;;;;;;6234722;23;20167;-91
2022/06/04 02:37:38;;;;;;;9.02;4.80;;;;;;;;;;6234343;23;20159;-90
2022/06/04 02:40:48;;;;;;;12.55;4.85;;;;;;;;;;6236196;23;20196;-91
2022/06/04 02:43:57;;;;;;;12.18;5.22;;;;;;;;;;6235442;23;20183;-92
2022/06/04 02:47:06;;;;;;;12.25;5.90;;;;;;;;;;6234779;23;20167;-91
2022/06/04 02:50:15;;;;;;;8.40;4.68;;;;;;;;;;6235008;23;20171;-89
2022/06/04 02:53:20;;;;;;;10.52;4.90;;;;;;;;;;6231833;23;20611;-91
2022/06/04 02:56:27;;;;;;;8.88;4.60;;;;;;;;;;6234338;23;20155;-91
2022/06/04 02:59:35;;;;;;;13.05;5.57;;;;;;;;;;6233043;23;20170;-92
2022/06/04 03:02:43;;;;;;;10.25;6.28;;;;;;;;;;6233567;23;20172;-90
2022/06/04 03:05:53;;;;;;;15.90;7.90;;;;;;;;;;6233051;23;20163;-92
2022/06/04 03:08:59;;;;;;;69.07;8.27;;;;;;;;;;6232466;23;20244;-91
2022/06/04 03:12:06;;;;;;;13.48;8.23;;;;;;;;;;6233597;23;20170;-91
2022/06/04 03:15:12;;;;;;;14.88;7.75;;;;;;;;;;6235017;23;20164;-91
2022/06/04 03:18:20;;;;;;;15.68;8.45;;;;;;;;;;6233016;23;20171;-91
2022/06/04 03:21:29;;;;;;;16.05;8.75;;;;;;;;;;6233451;23;20210;-92
2022/06/04 03:24:35;;;;;;;16.52;8.35;;;;;;;;;;6234262;23;20167;-91
2022/06/04 03:27:40;;;;;;;14.02;6.82;;;;;;;;;;6232712;23;20164;-92
2022/06/04 03:30:46;;;;;;;18.98;7.70;;;;;;;;;;6234373;23;20194;-90
2022/06/04 03:33:52;;;;;;;19.25;8.63;;;;;;;;;;6233913;23;20216;-90
2022/06/04 03:36:57;;;;;;;15.10;7.93;;;;;;;;;;6233700;23;20167;-90
2022/06/04 03:40:04;;;;;;;17.35;8.60;;;;;;;;;;6232829;23;20216;-90
2022/06/04 03:43:09;;;;;;;32.33;10.02;;;;;;;;;;6232111;23;20155;-91
2022/06/04 03:46:15;;;;;;;162.85;11.32;;;;;;;;;;6233101;23;20202;-91
2022/06/04 03:49:22;;;;;;;52.33;11.57;;;;;;;;;;6233940;23;20215;-90
2022/06/04 03:52:27;;;;;;;67.05;10.60;;;;;;;;;;6233745;23;20162;-91
2022/06/04 03:55:32;;;;;;;90.50;10.45;;;;;;;;;;6234776;23;20166;-91
2022/06/04 03:58:38;;;;;;;38.00;9.82;;;;;;;;;;6232079;23;20223;-91
2022/06/04 04:02:07;;;;;;;29.45;10.65;;;;;;;;;;6232260;23;20199;-90
2022/06/04 04:09:34;;;;;;;28.65;9.30;;;;;;;;;;6230975;23;20191;-90
2022/06/04 04:12:39;;;;;;;20.38;9.00;;;;;;;;;;6231427;23;20155;-89
2022/06/04 04:15:45;;;;;;;30.23;9.10;;;;;;;;;;6231307;23;20228;-91
2022/06/04 04:18:51;;;;;;;19.52;8.82;;;;;;;;;;6231295;23;20227;-91
2022/06/04 04:21:57;;;;;;;25.42;9.85;;;;;;;;;;6230392;23;20622;-92
2022/06/04 04:25:04;;;;;;;39.10;9.85;;;;;;;;;;6229160;23;20171;-90
2022/06/04 04:28:10;;;;;;;43.35;9.13;;;;;;;;;;6230924;23;20200;-92
2022/06/04 04:31:16;;;;;;;56.65;9.60;;;;;;;;;;6230537;23;20190;-92
2022/06/04 04:34:21;;;;;;;36.90;8.70;;;;;;;;;;6233795;23;20635;-91
2022/06/04 04:37:28;;;;;;;25.08;9.30;;;;;;;;;;6233484;23;20163;-90
2022/06/04 04:40:35;;;;;;;21.98;10.02;;;;;;;;;;6233090;23;20150;-92
2022/06/04 06:11:28;;;;;;;10.25;7.57;;;;;;;;;;6217180;22;20214;-91
2022/06/04 06:14:34;;;;;;;10.43;6.82;;;;;;;;;;6248398;22;20236;-91
2022/06/04 06:17:40;;;;;;;10.30;7.15;;;;;;;;;;6246495;23;20162;-91
2022/06/04 06:20:46;;;;;;;10.85;7.72;;;;;;;;;;6245426;22;20236;-92
2022/06/04 06:23:52;;;;;;;9.75;7.05;;;;;;;;;;6244613;22;20301;-91
2022/06/04 06:27:02;;;;;;;10.35;6.70;;;;;;;;;;6247539;23;20145;-91
2022/06/04 06:30:08;;;;;;;9.73;7.05;;;;;;;;;;6249671;22;20214;-91
2022/06/04 06:33:18;;;;;;;8.25;6.35;;;;;;;;;;6247992;23;20162;-93
2022/06/04 06:36:24;;;;;;;8.45;6.28;;;;;;;;;;6251711;22;20158;-90
2022/06/04 06:39:29;;;;;;;8.82;5.88;;;;;;;;;;6249330;22;20217;-92
2022/06/04 06:42:36;;;;;;;11.70;6.32;;;;;;;;;;6250894;22;20174;-93
2022/06/04 06:45:46;;;;;;;7.47;6.03;;;;;;;;;;6247871;23;20165;-91
2022/06/04 06:48:53;;;;;;;8.15;5.55;;;;;;;;;;6246800;22;20190;-92
2022/06/04 06:52:00;;;;;;;10.02;6.00;;;;;;;;;;6248688;22;20149;-91
2022/06/04 06:55:07;;;;;;;8.43;5.57;;;;;;;;;;6247731;22;20598;-93
2022/06/04 06:58:16;;;;;;;7.78;5.80;;;;;;;;;;6248520;22;20166;-92
2022/06/04 07:01:24;;;;;;;8.25;5.68;;;;;;;;;;6246220;22;20167;-91
2022/06/04 07:04:31;;;;;;;8.70;5.53;;;;;;;;;;6248259;23;20182;-90
2022/06/04 07:07:38;;;;;;;10.50;5.20;;;;;;;;;;6246994;23;20170;-91
2022/06/04 07:10:45;;;;;;;7.45;4.75;;;;;;;;;;6247014;22;20174;-92
2022/06/04 07:13:53;;;;;;;8.18;3.83;;;;;;;;;;6245403;22;20233;-92
2022/06/04 07:16:59;;;;;;;9.60;4.40;;;;;;;;;;6246030;22;20200;-92
2022/06/04 07:20:05;;;;;;;8.93;3.60;;;;;;;;;;6247956;23;20226;-92
2022/06/04 07:23:11;;;;;;;6.22;3.00;;;;;;;;;;6245768;23;20193;-92
2022/06/04 07:26:16;;;;;;;4.65;3.50;;;;;;;;;;6247011;23;20270;-92
2022/06/04 07:29:26;;;;;;;10.27;3.67;;;;;;;;;;6245863;22;20189;-90
